sensor_id;sensor_type;location;lat;lon;timestamp;pressure;altitude;pressure_sealevel;temperature;humidity
51369;BME280;37459;51.416;5.502;2022-07-09T00:00:58;102411.56;;;16.35;89.72
51369;BME280;37459;51.416;5.502;2022-07-09T00:03:24;102403.00;;;16.31;89.88
51369;BME280;37459;51.416;5.502;2022-07-09T00:05:52;102410.09;;;16.32;90.14
51369;BME280;37459;51.416;5.502;2022-07-09T00:08:19;102408.84;;;16.28;90.20
51369;BME280;37459;51.416;5.502;2022-07-09T00:10:45;102405.28;;;16.34;89.68
51369;BME280;37459;51.416;5.502;2022-07-09T00:13:12;102402.38;;;16.36;89.23
51369;BME280;37459;51.416;5.502;2022-07-09T00:15:38;102408.00;;;16.34;89.20
51369;BME280;37459;51.416;5.502;2022-07-09T00:18:04;102407.00;;;16.29;89.63
51369;BME280;37459;51.416;5.502;2022-07-09T00:20:31;102406.56;;;16.18;90.38
51369;BME280;37459;51.416;5.502;2022-07-09T00:22:59;102402.78;;;16.06;91.40
51369;BME280;37459;51.416;5.502;2022-07-09T00:25:26;102400.91;;;16.00;91.71
51369;BME280;37459;51.416;5.502;2022-07-09T00:27:52;102402.34;;;15.96;92.62
51369;BME280;37459;51.416;5.502;2022-07-09T00:30:19;102398.81;;;15.95;92.37
51369;BME280;37459;51.416;5.502;2022-07-09T00:32:45;102402.97;;;15.91;93.22
51369;BME280;37459;51.416;5.502;2022-07-09T00:35:12;102398.16;;;15.87;93.61
51369;BME280;37459;51.416;5.502;2022-07-09T00:37:38;102406.13;;;15.81;94.08
51369;BME280;37459;51.416;5.502;2022-07-09T00:40:07;102401.09;;;15.78;93.90
51369;BME280;37459;51.416;5.502;2022-07-09T00:42:33;102404.22;;;15.75;94.20
51369;BME280;37459;51.416;5.502;2022-07-09T00:45:00;102398.16;;;15.73;94.51
51369;BME280;37459;51.416;5.502;2022-07-09T00:47:26;102397.69;;;15.70;94.86
51369;BME280;37459;51.416;5.502;2022-07-09T00:49:54;102393.69;;;15.66;95.49
51369;BME280;37459;51.416;5.502;2022-07-09T00:52:21;102393.50;;;15.67;95.44
51369;BME280;37459;51.416;5.502;2022-07-09T00:54:48;102391.63;;;15.68;95.34
51369;BME280;37459;51.416;5.502;2022-07-09T00:57:16;102402.78;;;15.79;94.63
51369;BME280;37459;51.416;5.502;2022-07-09T00:59:44;102393.34;;;15.75;94.81
51369;BME280;37459;51.416;5.502;2022-07-09T01:02:11;102393.16;;;15.84;94.11
51369;BME280;37459;51.416;5.502;2022-07-09T01:04:37;102395.69;;;15.92;93.45
51369;BME280;37459;51.416;5.502;2022-07-09T01:07:04;102399.44;;;15.91;93.28
51369;BME280;37459;51.416;5.502;2022-07-09T01:09:31;102380.19;;;15.72;93.77
51369;BME280;37459;51.416;5.502;2022-07-09T01:11:59;102396.69;;;15.77;93.76
51369;BME280;37459;51.416;5.502;2022-07-09T01:14:27;102393.78;;;15.86;93.55
51369;BME280;37459;51.416;5.502;2022-07-09T01:16:57;102384.75;;;15.72;93.95
51369;BME280;37459;51.416;5.502;2022-07-09T01:19:25;102388.53;;;15.77;93.47
51369;BME280;37459;51.416;5.502;2022-07-09T01:21:56;102387.09;;;15.81;93.07
51369;BME280;37459;51.416;5.502;2022-07-09T01:24:23;102384.31;;;15.68;93.66
51369;BME280;37459;51.416;5.502;2022-07-09T01:26:52;102388.47;;;15.51;93.90
51369;BME280;37459;51.416;5.502;2022-07-09T01:29:19;102382.38;;;15.35;94.77
51369;BME280;37459;51.416;5.502;2022-07-09T01:31:45;102381.34;;;15.43;95.41
51369;BME280;37459;51.416;5.502;2022-07-09T01:34:12;102372.56;;;15.48;95.29
51369;BME280;37459;51.416;5.502;2022-07-09T01:36:38;102370.28;;;15.51;94.50
51369;BME280;37459;51.416;5.502;2022-07-09T01:39:06;102368.00;;;15.55;94.57
51369;BME280;37459;51.416;5.502;2022-07-09T01:41:32;102352.91;;;15.52;94.13
51369;BME280;37459;51.416;5.502;2022-07-09T01:43:59;102360.41;;;15.44;94.49
51369;BME280;37459;51.416;5.502;2022-07-09T01:46:25;102350.38;;;15.37;94.67
51369;BME280;37459;51.416;5.502;2022-07-09T01:48:52;102354.56;;;15.33;95.13
51369;BME280;37459;51.416;5.502;2022-07-09T01:51:18;102353.69;;;15.19;95.92
51369;BME280;37459;51.416;5.502;2022-07-09T01:53:47;102359.34;;;15.18;96.03
51369;BME280;37459;51.416;5.502;2022-07-09T01:56:14;102349.50;;;15.24;96.10
51369;BME280;37459;51.416;5.502;2022-07-09T01:58:41;102338.03;;;15.28;95.36
51369;BME280;37459;51.416;5.502;2022-07-09T02:01:09;102344.09;;;15.30;94.55
51369;BME280;37459;51.416;5.502;2022-07-09T02:03:35;102348.25;;;15.19;94.99
51369;BME280;37459;51.416;5.502;2022-07-09T02:06:02;102351.09;;;15.05;95.70
51369;BME280;37459;51.416;5.502;2022-07-09T02:08:28;102350.69;;;14.94;96.36
51369;BME280;37459;51.416;5.502;2022-07-09T02:10:55;102347.31;;;14.92;96.89
51369;BME280;37459;51.416;5.502;2022-07-09T02:13:23;102344.78;;;14.84;97.60
51369;BME280;37459;51.416;5.502;2022-07-09T02:15:50;102352.28;;;14.82;97.49
51369;BME280;37459;51.416;5.502;2022-07-09T02:18:19;102352.13;;;14.90;97.18
51369;BME280;37459;51.416;5.502;2022-07-09T02:20:46;102343.94;;;14.84;97.40
51369;BME280;37459;51.416;5.502;2022-07-09T02:23:12;102331.97;;;14.71;97.35
51369;BME280;37459;51.416;5.502;2022-07-09T02:25:38;102335.31;;;14.67;97.41
51369;BME280;37459;51.416;5.502;2022-07-09T02:28:05;102342.19;;;14.69;97.34
51369;BME280;37459;51.416;5.502;2022-07-09T02:30:33;102339.69;;;14.74;97.11
51369;BME280;37459;51.416;5.502;2022-07-09T02:33:02;102340.38;;;14.83;95.87
51369;BME280;37459;51.416;5.502;2022-07-09T02:35:28;102343.91;;;14.77;96.40
51369;BME280;37459;51.416;5.502;2022-07-09T02:37:55;102336.31;;;14.66;96.56
51369;BME280;37459;51.416;5.502;2022-07-09T02:40:22;102329.19;;;14.58;96.94
51369;BME280;37459;51.416;5.502;2022-07-09T02:42:48;102326.53;;;14.71;96.64
51369;BME280;37459;51.416;5.502;2022-07-09T02:45:14;102331.31;;;14.63;96.92
51369;BME280;37459;51.416;5.502;2022-07-09T02:47:42;102332.88;;;14.50;97.74
51369;BME280;37459;51.416;5.502;2022-07-09T02:50:09;102333.25;;;14.41;97.88
51369;BME280;37459;51.416;5.502;2022-07-09T02:52:35;102328.16;;;14.31;98.56
51369;BME280;37459;51.416;5.502;2022-07-09T02:55:02;102330.63;;;14.26;98.36
51369;BME280;37459;51.416;5.502;2022-07-09T02:57:28;102335.44;;;14.24;99.44
51369;BME280;37459;51.416;5.502;2022-07-09T02:59:55;102328.06;;;14.17;99.50
51369;BME280;37459;51.416;5.502;2022-07-09T03:02:21;102323.53;;;14.25;98.86
51369;BME280;37459;51.416;5.502;2022-07-09T03:04:49;102327.00;;;14.40;97.35
51369;BME280;37459;51.416;5.502;2022-07-09T03:07:16;102321.72;;;14.32;97.67
51369;BME280;37459;51.416;5.502;2022-07-09T03:09:42;102326.88;;;14.27;98.30
51369;BME280;37459;51.416;5.502;2022-07-09T03:12:09;102319.84;;;14.32;97.45
51369;BME280;37459;51.416;5.502;2022-07-09T03:14:35;102328.16;;;14.31;97.24
51369;BME280;37459;51.416;5.502;2022-07-09T03:17:02;102320.88;;;14.31;97.29
51369;BME280;37459;51.416;5.502;2022-07-09T03:19:28;102322.31;;;14.27;97.29
51369;BME280;37459;51.416;5.502;2022-07-09T03:21:56;102323.34;;;14.26;96.98
51369;BME280;37459;51.416;5.502;2022-07-09T03:24:23;102322.28;;;14.21;97.21
51369;BME280;37459;51.416;5.502;2022-07-09T03:26:49;102332.72;;;14.24;96.60
51369;BME280;37459;51.416;5.502;2022-07-09T03:29:16;102321.81;;;14.17;97.06
51369;BME280;37459;51.416;5.502;2022-07-09T03:31:42;102325.81;;;14.21;97.02
51369;BME280;37459;51.416;5.502;2022-07-09T03:34:09;102318.88;;;14.12;97.04
51369;BME280;37459;51.416;5.502;2022-07-09T03:36:35;102317.59;;;14.08;97.31
51369;BME280;37459;51.416;5.502;2022-07-09T03:39:03;102322.50;;;13.97;97.78
51369;BME280;37459;51.416;5.502;2022-07-09T03:41:30;102319.63;;;13.99;97.28
51369;BME280;37459;51.416;5.502;2022-07-09T03:43:56;102315.06;;;14.06;96.54
51369;BME280;37459;51.416;5.502;2022-07-09T03:46:23;102308.53;;;14.01;96.57
51369;BME280;37459;51.416;5.502;2022-07-09T03:48:50;102311.66;;;13.97;97.41
51369;BME280;37459;51.416;5.502;2022-07-09T03:51:16;102312.31;;;14.00;97.00
51369;BME280;37459;51.416;5.502;2022-07-09T03:53:43;102310.84;;;13.97;97.31
51369;BME280;37459;51.416;5.502;2022-07-09T03:56:11;102312.84;;;13.88;97.86
51369;BME280;37459;51.416;5.502;2022-07-09T03:58:38;102319.50;;;13.86;97.96
51369;BME280;37459;51.416;5.502;2022-07-09T04:01:04;102317.41;;;13.88;98.03
51369;BME280;37459;51.416;5.502;2022-07-09T04:03:31;102318.22;;;13.82;98.49
51369;BME280;37459;51.416;5.502;2022-07-09T04:05:57;102318.59;;;13.79;98.84
51369;BME280;37459;51.416;5.502;2022-07-09T04:08:24;102322.34;;;13.77;98.65
51369;BME280;37459;51.416;5.502;2022-07-09T04:10:50;102321.56;;;13.84;98.39
51369;BME280;37459;51.416;5.502;2022-07-09T04:13:18;102317.41;;;13.88;97.79
51369;BME280;37459;51.416;5.502;2022-07-09T04:15:44;102315.75;;;13.87;98.38
51369;BME280;37459;51.416;5.502;2022-07-09T04:18:13;102310.78;;;13.90;98.31
51369;BME280;37459;51.416;5.502;2022-07-09T04:20:40;102312.44;;;13.91;98.35
51369;BME280;37459;51.416;5.502;2022-07-09T04:23:08;102296.97;;;13.85;98.42
51369;BME280;37459;51.416;5.502;2022-07-09T04:25:34;102305.00;;;14.00;98.40
51369;BME280;37459;51.416;5.502;2022-07-09T04:28:01;102313.41;;;14.05;98.93
51369;BME280;37459;51.416;5.502;2022-07-09T04:30:29;102313.69;;;14.17;99.13
51369;BME280;37459;51.416;5.502;2022-07-09T04:32:55;102317.22;;;14.17;98.99
51369;BME280;37459;51.416;5.502;2022-07-09T04:35:22;102320.09;;;14.09;99.15
51369;BME280;37459;51.416;5.502;2022-07-09T04:37:48;102312.41;;;14.13;99.23
51369;BME280;37459;51.416;5.502;2022-07-09T04:40:15;102316.41;;;14.17;99.00
51369;BME280;37459;51.416;5.502;2022-07-09T04:42:41;102307.22;;;14.18;98.99
51369;BME280;37459;51.416;5.502;2022-07-09T04:45:08;102314.50;;;14.17;99.08
51369;BME280;37459;51.416;5.502;2022-07-09T04:47:37;102307.44;;;14.16;99.25
51369;BME280;37459;51.416;5.502;2022-07-09T04:50:04;102305.97;;;14.14;99.61
51369;BME280;37459;51.416;5.502;2022-07-09T04:52:31;102301.78;;;14.18;99.60
51369;BME280;37459;51.416;5.502;2022-07-09T04:54:57;102311.00;;;14.24;99.44
51369;BME280;37459;51.416;5.502;2022-07-09T04:57:24;102307.88;;;14.27;100.00
51369;BME280;37459;51.416;5.502;2022-07-09T04:59:50;102299.56;;;14.28;99.91
51369;BME280;37459;51.416;5.502;2022-07-09T05:02:17;102308.78;;;14.34;100.00
51369;BME280;37459;51.416;5.502;2022-07-09T05:04:45;102300.00;;;14.32;99.96
51369;BME280;37459;51.416;5.502;2022-07-09T05:07:11;102300.00;;;14.32;100.00
51369;BME280;37459;51.416;5.502;2022-07-09T05:09:38;102309.03;;;14.39;100.00
51369;BME280;37459;51.416;5.502;2022-07-09T05:12:05;102304.06;;;14.49;99.76
51369;BME280;37459;51.416;5.502;2022-07-09T05:14:33;102308.25;;;14.52;99.30
51369;BME280;37459;51.416;5.502;2022-07-09T05:17:00;102298.22;;;14.52;100.00
51369;BME280;37459;51.416;5.502;2022-07-09T05:19:26;102304.38;;;14.61;100.00
51369;BME280;37459;51.416;5.502;2022-07-09T05:21:54;102305.03;;;14.70;100.00
51369;BME280;37459;51.416;5.502;2022-07-09T05:24:20;102310.72;;;14.75;100.00
51369;BME280;37459;51.416;5.502;2022-07-09T05:26:47;102311.75;;;14.81;100.00
51369;BME280;37459;51.416;5.502;2022-07-09T05:29:14;102299.25;;;14.86;100.00
51369;BME280;37459;51.416;5.502;2022-07-09T05:31:41;102300.31;;;14.92;100.00
51369;BME280;37459;51.416;5.502;2022-07-09T05:34:08;102303.06;;;14.98;100.00
51369;BME280;37459;51.416;5.502;2022-07-09T05:36:34;102294.72;;;15.07;100.00
51369;BME280;37459;51.416;5.502;2022-07-09T05:39:03;102291.00;;;15.14;100.00
51369;BME280;37459;51.416;5.502;2022-07-09T05:41:29;102296.63;;;15.19;100.00
51369;BME280;37459;51.416;5.502;2022-07-09T05:43:56;102295.19;;;15.24;100.00
51369;BME280;37459;51.416;5.502;2022-07-09T05:46:22;102292.47;;;15.30;100.00
51369;BME280;37459;51.416;5.502;2022-07-09T05:48:49;102294.38;;;15.36;100.00
51369;BME280;37459;51.416;5.502;2022-07-09T05:51:15;102295.22;;;15.44;100.00
51369;BME280;37459;51.416;5.502;2022-07-09T05:53:42;102289.78;;;15.44;100.00
51369;BME280;37459;51.416;5.502;2022-07-09T05:56:10;102302.13;;;15.53;100.00
51369;BME280;37459;51.416;5.502;2022-07-09T05:58:37;102302.34;;;15.58;100.00
51369;BME280;37459;51.416;5.502;2022-07-09T06:01:04;102309.88;;;15.63;100.00
51369;BME280;37459;51.416;5.502;2022-07-09T06:03:31;102309.88;;;15.69;100.00
51369;BME280;37459;51.416;5.502;2022-07-09T06:05:57;102292.72;;;15.69;100.00
51369;BME280;37459;51.416;5.502;2022-07-09T06:08:24;102305.53;;;15.81;100.00
51369;BME280;37459;51.416;5.502;2022-07-09T06:10:51;102296.72;;;15.86;100.00
51369;BME280;37459;51.416;5.502;2022-07-09T06:13:19;102293.38;;;15.91;100.00
51369;BME280;37459;51.416;5.502;2022-07-09T06:15:45;102305.69;;;16.00;100.00
51369;BME280;37459;51.416;5.502;2022-07-09T06:18:13;102305.50;;;16.08;100.00
51369;BME280;37459;51.416;5.502;2022-07-09T06:20:39;102304.84;;;16.13;100.00
51369;BME280;37459;51.416;5.502;2022-07-09T06:23:06;102300.47;;;16.18;100.00
51369;BME280;37459;51.416;5.502;2022-07-09T06:25:32;102295.66;;;16.20;100.00
51369;BME280;37459;51.416;5.502;2022-07-09T06:27:59;102299.00;;;16.22;100.00
51369;BME280;37459;51.416;5.502;2022-07-09T06:30:27;102303.59;;;16.29;100.00
51369;BME280;37459;51.416;5.502;2022-07-09T06:32:53;102302.72;;;16.35;100.00
51369;BME280;37459;51.416;5.502;2022-07-09T06:35:20;102298.09;;;16.42;100.00
51369;BME280;37459;51.416;5.502;2022-07-09T06:37:46;102293.00;;;16.59;100.00
51369;BME280;37459;51.416;5.502;2022-07-09T06:40:13;102289.66;;;16.63;100.00
51369;BME280;37459;51.416;5.502;2022-07-09T06:42:40;102301.75;;;16.74;99.96
51369;BME280;37459;51.416;5.502;2022-07-09T06:45:08;102297.97;;;16.82;100.00
51369;BME280;37459;51.416;5.502;2022-07-09T06:47:36;102293.31;;;16.89;99.64
51369;BME280;37459;51.416;5.502;2022-07-09T06:50:03;102298.75;;;16.96;99.12
51369;BME280;37459;51.416;5.502;2022-07-09T06:52:30;102303.94;;;17.04;98.80
51369;BME280;37459;51.416;5.502;2022-07-09T06:54:56;102308.53;;;17.10;98.52
51369;BME280;37459;51.416;5.502;2022-07-09T06:57:23;102308.47;;;17.17;97.92
51369;BME280;37459;51.416;5.502;2022-07-09T06:59:49;102291.72;;;17.20;97.60
51369;BME280;37459;51.416;5.502;2022-07-09T07:02:16;102306.06;;;17.34;97.26
51369;BME280;37459;51.416;5.502;2022-07-09T07:04:44;102307.66;;;17.48;96.53
51369;BME280;37459;51.416;5.502;2022-07-09T07:07:10;102301.88;;;17.63;95.04
51369;BME280;37459;51.416;5.502;2022-07-09T07:09:37;102287.84;;;17.59;94.68
51369;BME280;37459;51.416;5.502;2022-07-09T07:12:04;102309.00;;;17.64;94.29
51369;BME280;37459;51.416;5.502;2022-07-09T07:14:31;102318.41;;;17.68;93.97
51369;BME280;37459;51.416;5.502;2022-07-09T07:16:57;102315.19;;;17.78;94.02
51369;BME280;37459;51.416;5.502;2022-07-09T07:19:24;102315.09;;;17.91;94.07
51369;BME280;37459;51.416;5.502;2022-07-09T07:21:51;102311.25;;;17.99;93.85
51369;BME280;37459;51.416;5.502;2022-07-09T07:24:18;102322.25;;;18.11;92.88
51369;BME280;37459;51.416;5.502;2022-07-09T07:26:44;102306.34;;;18.08;93.18
51369;BME280;37459;51.416;5.502;2022-07-09T07:29:11;102299.22;;;18.06;92.50
51369;BME280;37459;51.416;5.502;2022-07-09T07:31:37;102309.16;;;18.19;92.05
51369;BME280;37459;51.416;5.502;2022-07-09T07:34:04;102310.31;;;18.30;91.43
51369;BME280;37459;51.416;5.502;2022-07-09T07:36:31;102306.66;;;18.36;90.96
51369;BME280;37459;51.416;5.502;2022-07-09T07:38:59;102304.88;;;18.48;90.37
51369;BME280;37459;51.416;5.502;2022-07-09T07:41:25;102309.41;;;18.55;89.72
51369;BME280;37459;51.416;5.502;2022-07-09T07:43:52;102314.03;;;18.73;89.14
51369;BME280;37459;51.416;5.502;2022-07-09T07:46:18;102309.72;;;18.83;88.30
51369;BME280;37459;51.416;5.502;2022-07-09T07:48:45;102304.91;;;18.97;87.26
51369;BME280;37459;51.416;5.502;2022-07-09T07:51:11;102307.31;;;19.05;86.82
51369;BME280;37459;51.416;5.502;2022-07-09T07:53:38;102314.72;;;19.17;85.07
51369;BME280;37459;51.416;5.502;2022-07-09T07:56:07;102310.75;;;19.31;83.54
51369;BME280;37459;51.416;5.502;2022-07-09T07:58:34;102300.09;;;19.41;82.79
51369;BME280;37459;51.416;5.502;2022-07-09T08:01:01;102309.13;;;19.54;82.29
51369;BME280;37459;51.416;5.502;2022-07-09T08:03:28;102314.97;;;19.57;81.39
51369;BME280;37459;51.416;5.502;2022-07-09T08:05:54;102310.59;;;19.68;80.39
51369;BME280;37459;51.416;5.502;2022-07-09T08:08:21;102316.13;;;19.92;80.06
51369;BME280;37459;51.416;5.502;2022-07-09T08:10:48;102310.75;;;19.97;78.71
51369;BME280;37459;51.416;5.502;2022-07-09T08:13:16;102309.22;;;20.01;78.77
51369;BME280;37459;51.416;5.502;2022-07-09T08:15:43;102297.19;;;20.14;78.08
51369;BME280;37459;51.416;5.502;2022-07-09T08:18:10;102286.38;;;20.07;78.09
51369;BME280;37459;51.416;5.502;2022-07-09T08:20:39;102307.78;;;20.10;77.72
51369;BME280;37459;51.416;5.502;2022-07-09T08:23:06;102305.28;;;20.20;77.21
51369;BME280;37459;51.416;5.502;2022-07-09T08:25:32;102301.09;;;20.29;76.62
51369;BME280;37459;51.416;5.502;2022-07-09T08:27:59;102307.06;;;20.26;76.51
51369;BME280;37459;51.416;5.502;2022-07-09T08:30:27;102296.22;;;20.31;77.19
51369;BME280;37459;51.416;5.502;2022-07-09T08:32:54;102288.97;;;20.25;77.02
51369;BME280;37459;51.416;5.502;2022-07-09T08:35:20;102275.41;;;20.30;76.56
51369;BME280;37459;51.416;5.502;2022-07-09T08:37:46;102280.97;;;20.36;75.16
51369;BME280;37459;51.416;5.502;2022-07-09T08:40:13;102275.13;;;20.44;74.85
51369;BME280;37459;51.416;5.502;2022-07-09T08:42:39;102275.00;;;20.50;75.24
51369;BME280;37459;51.416;5.502;2022-07-09T08:45:08;102267.28;;;20.47;76.09
51369;BME280;37459;51.416;5.502;2022-07-09T08:47:38;102276.69;;;20.51;76.43
51369;BME280;37459;51.416;5.502;2022-07-09T08:50:06;102266.41;;;20.47;75.77
51369;BME280;37459;51.416;5.502;2022-07-09T08:52:35;102266.28;;;20.65;76.00
51369;BME280;37459;51.416;5.502;2022-07-09T08:55:02;102262.66;;;20.88;75.37
51369;BME280;37459;51.416;5.502;2022-07-09T08:57:28;102250.44;;;20.96;74.34
51369;BME280;37459;51.416;5.502;2022-07-09T08:59:55;102239.28;;;21.15;70.90
51369;BME280;37459;51.416;5.502;2022-07-09T09:02:21;102256.00;;;21.47;72.62
51369;BME280;37459;51.416;5.502;2022-07-09T09:04:49;102255.00;;;21.53;72.32
51369;BME280;37459;51.416;5.502;2022-07-09T09:07:16;102244.47;;;21.45;72.04
51369;BME280;37459;51.416;5.502;2022-07-09T09:09:44;102246.28;;;21.56;70.99
51369;BME280;37459;51.416;5.502;2022-07-09T09:12:11;102247.19;;;21.62;71.52
51369;BME280;37459;51.416;5.502;2022-07-09T09:14:38;102255.66;;;21.77;70.78
51369;BME280;37459;51.416;5.502;2022-07-09T09:17:06;102257.91;;;21.80;69.78
51369;BME280;37459;51.416;5.502;2022-07-09T09:19:34;102256.97;;;21.91;68.80
51369;BME280;37459;51.416;5.502;2022-07-09T09:22:03;102246.63;;;21.99;68.19
51369;BME280;37459;51.416;5.502;2022-07-09T09:24:30;102263.06;;;22.15;69.05
51369;BME280;37459;51.416;5.502;2022-07-09T09:26:57;102266.00;;;22.09;69.03
51369;BME280;37459;51.416;5.502;2022-07-09T09:29:25;102257.56;;;21.93;68.81
51369;BME280;37459;51.416;5.502;2022-07-09T09:31:52;102253.75;;;21.78;68.95
51369;BME280;37459;51.416;5.502;2022-07-09T09:34:19;102252.19;;;21.65;71.05
51369;BME280;37459;51.416;5.502;2022-07-09T09:36:47;102260.25;;;21.54;72.21
51369;BME280;37459;51.416;5.502;2022-07-09T09:39:18;102250.06;;;21.38;72.71
51369;BME280;37459;51.416;5.502;2022-07-09T09:41:46;102252.16;;;21.31;73.49
51369;BME280;37459;51.416;5.502;2022-07-09T09:44:14;102243.84;;;21.26;75.18
51369;BME280;37459;51.416;5.502;2022-07-09T09:46:42;102250.31;;;21.20;75.19
51369;BME280;37459;51.416;5.502;2022-07-09T09:49:10;102249.97;;;21.16;75.38
51369;BME280;37459;51.416;5.502;2022-07-09T09:51:45;102255.13;;;21.12;75.26
51369;BME280;37459;51.416;5.502;2022-07-09T09:54:13;102259.59;;;21.02;75.89
51369;BME280;37459;51.416;5.502;2022-07-09T09:56:41;102261.75;;;21.00;76.41
51369;BME280;37459;51.416;5.502;2022-07-09T09:59:08;102248.94;;;21.05;75.74
51369;BME280;37459;51.416;5.502;2022-07-09T10:01:35;102242.25;;;21.13;75.43
51369;BME280;37459;51.416;5.502;2022-07-09T10:04:03;102243.16;;;21.19;77.16
51369;BME280;37459;51.416;5.502;2022-07-09T10:06:30;102246.31;;;21.10;75.74
51369;BME280;37459;51.416;5.502;2022-07-09T10:08:56;102246.38;;;20.99;76.64
51369;BME280;37459;51.416;5.502;2022-07-09T10:11:23;102251.59;;;21.00;76.94
51369;BME280;37459;51.416;5.502;2022-07-09T10:13:52;102238.84;;;21.06;76.80
51369;BME280;37459;51.416;5.502;2022-07-09T10:16:31;102234.19;;;21.06;77.06
51369;BME280;37459;51.416;5.502;2022-07-09T10:18:57;102233.19;;;21.12;76.42
51369;BME280;37459;51.416;5.502;2022-07-09T10:21:35;102233.06;;;21.36;75.89
51369;BME280;37459;51.416;5.502;2022-07-09T10:24:02;102233.41;;;21.57;76.32
51369;BME280;37459;51.416;5.502;2022-07-09T10:26:36;102205.94;;;21.40;75.11
51369;BME280;37459;51.416;5.502;2022-07-09T10:29:05;102226.16;;;21.50;75.69
51369;BME280;37459;51.416;5.502;2022-07-09T10:31:43;102225.09;;;21.51;76.17
51369;BME280;37459;51.416;5.502;2022-07-09T10:34:16;102223.06;;;21.47;75.63
51369;BME280;37459;51.416;5.502;2022-07-09T10:36:56;102222.59;;;21.50;73.39
51369;BME280;37459;51.416;5.502;2022-07-09T10:39:23;102221.09;;;21.42;72.63
51369;BME280;37459;51.416;5.502;2022-07-09T10:41:58;102229.78;;;21.22;73.66
51369;BME280;37459;51.416;5.502;2022-07-09T10:44:27;102214.22;;;20.94;75.20
51369;BME280;37459;51.416;5.502;2022-07-09T10:46:55;102236.25;;;20.99;77.77
51369;BME280;37459;51.416;5.502;2022-07-09T10:49:22;102225.91;;;20.89;79.36
51369;BME280;37459;51.416;5.502;2022-07-09T10:51:49;102219.13;;;20.92;79.77
51369;BME280;37459;51.416;5.502;2022-07-09T10:54:15;102218.38;;;20.97;80.72
51369;BME280;37459;51.416;5.502;2022-07-09T10:56:42;102217.16;;;21.04;80.93
51369;BME280;37459;51.416;5.502;2022-07-09T10:59:08;102234.38;;;21.17;78.74
51369;BME280;37459;51.416;5.502;2022-07-09T11:01:37;102218.34;;;21.42;76.17
51369;BME280;37459;51.416;5.502;2022-07-09T11:04:03;102223.06;;;21.64;75.31
51369;BME280;37459;51.416;5.502;2022-07-09T11:06:30;102226.13;;;21.84;74.74
51369;BME280;37459;51.416;5.502;2022-07-09T11:08:56;102234.13;;;22.47;73.38
51369;BME280;37459;51.416;5.502;2022-07-09T11:11:23;102236.09;;;23.01;73.15
51369;BME280;37459;51.416;5.502;2022-07-09T11:13:50;102226.81;;;23.39;67.78
51369;BME280;37459;51.416;5.502;2022-07-09T11:16:21;102230.81;;;23.58;65.99
51369;BME280;37459;51.416;5.502;2022-07-09T11:18:50;102239.06;;;23.58;63.77
51369;BME280;37459;51.416;5.502;2022-07-09T11:21:21;102232.94;;;23.84;63.87
51369;BME280;37459;51.416;5.502;2022-07-09T11:23:48;102222.66;;;24.22;63.54
51369;BME280;37459;51.416;5.502;2022-07-09T11:26:15;102235.81;;;24.09;62.77
51369;BME280;37459;51.416;5.502;2022-07-09T11:28:41;102231.41;;;24.03;64.46
51369;BME280;37459;51.416;5.502;2022-07-09T11:31:11;102236.13;;;24.13;60.33
51369;BME280;37459;51.416;5.502;2022-07-09T11:33:38;102234.50;;;24.22;58.72
51369;BME280;37459;51.416;5.502;2022-07-09T11:36:23;102231.41;;;24.03;57.64
51369;BME280;37459;51.416;5.502;2022-07-09T11:38:54;102222.25;;;23.92;60.40
51369;BME280;37459;51.416;5.502;2022-07-09T11:41:20;102237.59;;;23.83;59.81
51369;BME280;37459;51.416;5.502;2022-07-09T11:43:50;102243.25;;;23.66;60.15
51369;BME280;37459;51.416;5.502;2022-07-09T11:46:18;102229.06;;;23.47;59.62
51369;BME280;37459;51.416;5.502;2022-07-09T11:48:54;102243.53;;;23.32;59.69
51369;BME280;37459;51.416;5.502;2022-07-09T11:51:30;102234.75;;;23.35;59.21
51369;BME280;37459;51.416;5.502;2022-07-09T11:53:57;102237.22;;;23.69;58.17
51369;BME280;37459;51.416;5.502;2022-07-09T11:56:23;102232.00;;;23.73;56.39
51369;BME280;37459;51.416;5.502;2022-07-09T11:58:50;102222.19;;;23.87;57.22
51369;BME280;37459;51.416;5.502;2022-07-09T12:01:19;102231.41;;;24.03;58.08
51369;BME280;37459;51.416;5.502;2022-07-09T12:03:49;102214.03;;;24.03;56.50
51369;BME280;37459;51.416;5.502;2022-07-09T12:06:16;102221.47;;;23.60;55.57
51369;BME280;37459;51.416;5.502;2022-07-09T12:08:44;102227.94;;;23.43;56.99
51369;BME280;37459;51.416;5.502;2022-07-09T12:11:10;102224.41;;;23.48;56.50
51369;BME280;37459;51.416;5.502;2022-07-09T12:13:37;102218.53;;;23.34;56.74
51369;BME280;37459;51.416;5.502;2022-07-09T12:16:04;102219.47;;;23.17;57.44
51369;BME280;37459;51.416;5.502;2022-07-09T12:18:30;102217.97;;;23.37;58.11
51369;BME280;37459;51.416;5.502;2022-07-09T12:20:57;102210.22;;;23.29;56.86
51369;BME280;37459;51.416;5.502;2022-07-09T12:23:23;102229.66;;;23.17;56.60
51369;BME280;37459;51.416;5.502;2022-07-09T12:25:51;102223.88;;;22.91;58.33
51369;BME280;37459;51.416;5.502;2022-07-09T12:28:18;102223.63;;;22.93;56.56
51369;BME280;37459;51.416;5.502;2022-07-09T12:30:44;102229.50;;;23.02;57.93
51369;BME280;37459;51.416;5.502;2022-07-09T12:33:11;102219.47;;;23.17;56.46
51369;BME280;37459;51.416;5.502;2022-07-09T12:35:37;102213.16;;;23.17;56.11
51369;BME280;37459;51.416;5.502;2022-07-09T12:38:04;102229.91;;;23.15;55.44
51369;BME280;37459;51.416;5.502;2022-07-09T12:40:30;102226.78;;;23.02;56.23
51369;BME280;37459;51.416;5.502;2022-07-09T12:42:58;102222.28;;;22.95;56.91
51369;BME280;37459;51.416;5.502;2022-07-09T12:45:24;102218.63;;;22.90;57.89
51369;BME280;37459;51.416;5.502;2022-07-09T12:47:53;102222.81;;;22.92;55.25